createdAt,value
2019-06-10T00:00:22.909Z,1.37
2019-06-10T00:03:11.700Z,1.77
2019-06-10T00:06:01.894Z,2.03
2019-06-10T00:08:50.641Z,1.67
2019-06-10T00:11:38.143Z,1.50
2019-06-10T00:14:26.209Z,1.60
2019-06-10T00:17:13.813Z,1.20
2019-06-10T00:20:02.430Z,1.63
2019-06-10T00:22:53.710Z,1.53
2019-06-10T00:25:41.966Z,1.97
2019-06-10T00:28:31.092Z,1.90
2019-06-10T00:31:20.745Z,1.40
2019-06-10T00:34:09.320Z,1.60
2019-06-10T00:36:59.630Z,1.40
2019-06-10T00:39:47.605Z,1.53
2019-06-10T00:42:35.432Z,1.70
2019-06-10T00:45:23.160Z,1.70
2019-06-10T00:48:21.299Z,1.63
2019-06-10T00:51:01.357Z,1.70
2019-06-10T00:53:48.456Z,1.80
2019-06-10T00:56:36.591Z,1.97
2019-06-10T00:59:24.240Z,1.80
2019-06-10T01:02:14.002Z,1.50
2019-06-10T01:05:01.025Z,1.70
2019-06-10T01:07:50.827Z,1.50
2019-06-10T01:10:38.102Z,1.50
2019-06-10T01:13:25.786Z,1.90
2019-06-10T01:16:15.398Z,1.93
2019-06-10T01:19:03.737Z,1.70
2019-06-10T01:21:52.145Z,1.70
2019-06-10T01:24:40.795Z,1.63
2019-06-10T01:27:28.363Z,1.70
2019-06-10T01:30:20.568Z,2.00
2019-06-10T01:33:06.187Z,1.60
2019-06-10T01:35:54.629Z,1.47
2019-06-10T01:38:42.301Z,1.70
2019-06-10T01:41:30.599Z,1.60
2019-06-10T01:44:18.600Z,1.63
2019-06-10T01:47:06.711Z,1.77
2019-06-10T01:49:54.882Z,1.63
2019-06-10T01:52:42.847Z,1.40
2019-06-10T01:55:31.224Z,1.67
2019-06-10T01:58:23.336Z,1.53
2019-06-10T02:01:20.329Z,1.50
2019-06-10T02:04:08.284Z,1.23
2019-06-10T02:06:56.460Z,1.77
2019-06-10T02:09:45.675Z,1.73
2019-06-10T02:12:33.571Z,1.60
2019-06-10T02:15:22.757Z,1.37
2019-06-10T02:18:12.281Z,1.27
2019-06-10T02:21:00.967Z,1.40
2019-06-10T02:23:51.602Z,1.90
2019-06-10T02:26:40.928Z,1.20
2019-06-10T02:29:27.876Z,1.80
2019-06-10T02:32:22.492Z,1.50
2019-06-10T02:35:14.445Z,1.27
2019-06-10T02:37:54.689Z,1.60
2019-06-10T02:40:43.531Z,1.50
2019-06-10T02:43:33.281Z,1.50
2019-06-10T02:46:27.910Z,1.53
2019-06-10T02:49:23.207Z,1.50
2019-06-10T02:52:03.363Z,1.50
2019-06-10T02:54:53.178Z,1.70
2019-06-10T02:57:40.252Z,1.70
2019-06-10T03:00:39.641Z,1.37
2019-06-10T03:03:22.973Z,1.67
2019-06-10T03:06:07.510Z,1.70
2019-06-10T03:08:55.017Z,1.53
2019-06-10T03:11:44.814Z,1.37
2019-06-10T03:14:32.876Z,1.13
2019-06-10T03:17:24.560Z,1.30
2019-06-10T03:20:12.313Z,1.37
2019-06-10T03:22:59.258Z,1.37
2019-06-10T03:25:49.743Z,1.23
2019-06-10T03:28:36.978Z,1.40
2019-06-10T03:31:33.722Z,1.33
2019-06-10T03:34:14.656Z,1.30
2019-06-10T03:37:02.554Z,1.60
2019-06-10T03:39:49.698Z,1.33
2019-06-10T03:42:37.506Z,1.67
2019-06-10T03:45:26.749Z,1.47
2019-06-10T03:48:14.688Z,1.73
2019-06-10T03:51:03.256Z,1.80
2019-06-10T03:53:53.154Z,1.57
2019-06-10T03:56:40.085Z,1.73
2019-06-10T03:59:29.536Z,1.70
2019-06-10T04:02:17.306Z,1.43
2019-06-10T04:05:05.079Z,1.73
2019-06-10T04:07:53.028Z,1.83
2019-06-10T04:10:42.932Z,1.50
2019-06-10T04:13:29.652Z,1.93
2019-06-10T04:16:17.660Z,1.20
2019-06-10T04:19:05.076Z,1.70
2019-06-10T04:21:53.282Z,1.53
2019-06-10T04:24:42.992Z,1.63
2019-06-10T04:27:29.415Z,1.43
2019-06-10T04:30:18.251Z,1.30
2019-06-10T04:33:05.976Z,1.73
2019-06-10T04:35:53.580Z,1.80
2019-06-10T04:38:42.987Z,1.57
2019-06-10T04:41:29.552Z,1.40
2019-06-10T04:44:18.541Z,1.60
2019-06-10T04:47:06.125Z,1.27
2019-06-10T04:49:54.087Z,1.90
2019-06-10T04:52:43.155Z,1.40
2019-06-10T04:55:32.595Z,1.73
2019-06-10T04:58:19.947Z,1.70
2019-06-10T05:01:08.466Z,1.40
2019-06-10T05:03:55.664Z,1.70
2019-06-10T05:06:43.478Z,1.67
2019-06-10T05:09:33.458Z,1.27
2019-06-10T05:12:22.350Z,1.53
2019-06-10T05:15:08.715Z,1.30
2019-06-10T05:17:56.269Z,1.70
2019-06-10T05:20:52.129Z,1.57
2019-06-10T05:23:33.269Z,1.60
2019-06-10T05:26:25.034Z,1.30
2019-06-10T05:29:11.938Z,1.53
2019-06-10T05:31:58.378Z,1.40
2019-06-10T05:34:46.173Z,1.37
2019-06-10T05:37:34.160Z,1.70
2019-06-10T05:40:23.645Z,1.40
2019-06-10T05:43:12.914Z,1.23
2019-06-10T05:45:59.369Z,1.60
2019-06-10T05:48:47.128Z,1.60
2019-06-10T05:51:35.391Z,1.50
2019-06-10T05:54:23.398Z,1.20
2019-06-10T05:57:12.143Z,1.60
2019-06-10T06:00:00.022Z,1.37
2019-06-10T06:02:47.648Z,1.37
2019-06-10T06:05:37.585Z,1.40
2019-06-10T06:08:25.121Z,1.57
2019-06-10T06:11:12.986Z,1.30
2019-06-10T06:14:02.676Z,1.30
2019-06-10T06:16:49.294Z,1.40
2019-06-10T06:19:38.832Z,1.60
2019-06-10T06:22:27.410Z,1.57
2019-06-10T06:25:15.786Z,1.20
2019-06-10T06:28:03.825Z,0.90
2019-06-10T06:30:52.810Z,1.20
2019-06-10T06:33:42.983Z,1.23
2019-06-10T06:36:30.586Z,1.00
2019-06-10T06:39:18.047Z,1.10
2019-06-10T06:42:05.684Z,1.30
2019-06-10T06:44:53.408Z,1.40
2019-06-10T06:47:43.526Z,1.37
2019-06-10T06:50:30.835Z,1.30
2019-06-10T06:53:28.555Z,1.57
2019-06-10T06:56:07.121Z,1.30
2019-06-10T06:58:54.895Z,1.23
2019-06-10T07:01:44.036Z,1.13
2019-06-10T07:04:34.246Z,1.53
2019-06-10T07:07:22.258Z,1.30
2019-06-10T07:10:12.097Z,1.30
2019-06-10T07:13:00.128Z,1.20
2019-06-10T07:15:47.879Z,1.10
2019-06-10T07:18:41.158Z,1.53
2019-06-10T07:21:24.268Z,1.40
2019-06-10T07:24:12.699Z,1.33
2019-06-10T07:27:02.574Z,1.33
2019-06-10T07:29:48.731Z,1.40
2019-06-10T07:32:38.758Z,1.47
2019-06-10T07:35:25.155Z,1.23
2019-06-10T07:38:13.106Z,1.30
2019-06-10T07:41:02.627Z,1.17
2019-06-10T07:43:52.593Z,1.20
2019-06-10T07:46:41.668Z,1.30
2019-06-10T07:49:28.823Z,1.10
2019-06-10T07:52:19.696Z,1.13
2019-06-10T07:55:04.763Z,1.40
2019-06-10T07:57:53.061Z,1.50
2019-06-10T08:00:46.535Z,1.20
2019-06-10T08:03:33.007Z,1.20
2019-06-10T08:06:18.643Z,1.10
2019-06-10T08:09:06.710Z,1.00
2019-06-10T08:11:54.539Z,1.30
2019-06-10T08:14:44.294Z,1.10
2019-06-10T08:17:32.829Z,1.00
2019-06-10T08:20:39.144Z,1.00
2019-06-10T08:23:27.356Z,1.40
2019-06-10T08:26:15.112Z,0.90
2019-06-10T08:29:04.452Z,0.73
2019-06-10T08:31:53.179Z,1.00
2019-06-10T08:34:44.634Z,0.90
2019-06-10T08:37:33.051Z,1.03
2019-06-10T08:40:19.362Z,0.80
2019-06-10T08:43:07.472Z,0.90
2019-06-10T08:45:55.032Z,0.80
2019-06-10T08:48:45.777Z,1.20
2019-06-10T08:51:32.465Z,1.00
2019-06-10T08:54:20.474Z,1.00
2019-06-10T08:57:08.744Z,0.83
2019-06-10T08:59:56.161Z,0.83
2019-06-10T09:02:46.791Z,0.80
2019-06-10T09:05:32.709Z,0.80
2019-06-10T09:08:20.715Z,0.80
2019-06-10T09:11:08.395Z,1.03
2019-06-10T09:13:55.642Z,1.17
2019-06-10T09:16:46.087Z,0.80
2019-06-10T09:19:33.222Z,1.43
2019-06-10T09:22:22.828Z,0.80
2019-06-10T09:25:12.262Z,0.60
2019-06-10T09:27:58.822Z,1.00
2019-06-10T09:31:05.709Z,0.90
2019-06-10T09:34:15.753Z,0.90
2019-06-10T09:37:03.525Z,0.70
2019-06-10T09:39:58.945Z,0.70
2019-06-10T09:42:45.576Z,0.60
2019-06-10T09:45:33.234Z,0.70
2019-06-10T09:48:23.084Z,0.67
2019-06-10T09:51:12.486Z,0.90
2019-06-10T09:54:05.561Z,0.70
2019-06-10T10:00:04.072Z,0.67
2019-06-10T10:02:53.589Z,0.70
2019-06-10T10:05:43.237Z,0.80
2019-06-10T10:08:28.796Z,0.90
2019-06-10T10:11:16.124Z,0.70
2019-06-10T10:14:08.055Z,0.60
2019-06-10T10:16:58.954Z,0.60
2019-06-10T10:19:45.332Z,0.63
2019-06-10T10:22:30.246Z,0.83
2019-06-10T10:25:17.895Z,0.60
2019-06-10T10:28:05.708Z,0.90
2019-06-10T10:30:57.570Z,0.63
2019-06-10T10:33:44.325Z,0.53
2019-06-10T10:36:33.564Z,0.73
2019-06-10T10:39:22.057Z,0.70
2019-06-10T10:42:09.334Z,0.90
2019-06-10T10:44:59.224Z,0.90
2019-06-10T10:47:46.946Z,0.60
2019-06-10T10:50:35.248Z,0.80
2019-06-10T10:53:23.816Z,0.70
2019-06-10T10:56:12.978Z,0.80
2019-06-10T10:59:02.129Z,0.70
2019-06-10T11:01:49.874Z,0.97
2019-06-10T11:04:39.442Z,0.90
2019-06-10T11:07:26.785Z,0.90
2019-06-10T11:10:14.299Z,0.90
2019-06-10T11:13:05.805Z,0.63
2019-06-10T11:15:55.385Z,0.70
2019-06-10T11:18:42.625Z,0.90
2019-06-10T11:21:30.408Z,0.80
2019-06-10T11:24:32.808Z,0.83
2019-06-10T11:27:06.852Z,0.90
2019-06-10T11:29:57.361Z,0.97
2019-06-10T11:32:43.854Z,0.80
2019-06-10T11:35:31.524Z,1.10
2019-06-10T11:38:19.408Z,0.60
2019-06-10T11:41:07.642Z,0.80
2019-06-10T11:43:58.076Z,1.40
2019-06-10T11:46:44.091Z,0.70
2019-06-10T11:49:31.295Z,0.90
2019-06-10T11:52:19.438Z,0.73
2019-06-10T11:55:15.307Z,1.00
2019-06-10T11:57:58.159Z,0.80
2019-06-10T12:00:45.663Z,0.90
2019-06-10T12:03:32.797Z,1.00
2019-06-10T12:06:22.867Z,0.90
2019-06-10T12:09:10.191Z,0.67
2019-06-10T12:12:01.401Z,1.00
2019-06-10T12:14:54.788Z,1.13
2019-06-10T12:17:46.984Z,0.97
2019-06-10T12:20:28.716Z,0.70
2019-06-10T12:23:16.790Z,0.73
2019-06-10T12:26:05.187Z,0.80
2019-06-10T12:28:54.996Z,0.80
2019-06-10T12:31:42.832Z,1.17
2019-06-10T12:34:33.021Z,0.70
2019-06-10T12:37:19.865Z,0.60
2019-06-10T12:40:07.710Z,0.90
2019-06-10T12:42:58.036Z,0.90
2019-06-10T12:45:44.265Z,0.70
2019-06-10T12:48:34.618Z,0.80
2019-06-10T12:51:28.976Z,0.87
2019-06-10T12:54:13.083Z,0.83
2019-06-10T12:57:04.777Z,1.10
2019-06-10T12:59:52.269Z,0.70
2019-06-10T13:02:42.758Z,1.00
2019-06-10T13:05:33.145Z,1.30
2019-06-10T13:08:21.330Z,1.27
2019-06-10T13:11:09.216Z,0.80
2019-06-10T13:13:57.801Z,0.70
2019-06-10T13:16:48.126Z,0.63
2019-06-10T13:19:39.207Z,0.90
2019-06-10T13:22:26.889Z,1.03
2019-06-10T13:25:15.180Z,0.87
2019-06-10T13:28:06.711Z,0.90
2019-06-10T13:30:54.421Z,1.00
2019-06-10T13:33:42.913Z,0.80
2019-06-10T13:39:39.097Z,0.97
2019-06-10T13:42:26.647Z,1.00
2019-06-10T13:45:15.115Z,0.70
2019-06-10T13:48:05.886Z,0.60
2019-06-10T13:53:58.781Z,0.70
2019-06-10T13:56:47.826Z,0.53
2019-06-10T13:59:35.253Z,0.90
2019-06-10T14:02:25.025Z,1.00
2019-06-10T14:05:18.107Z,0.80
2019-06-10T14:08:05.325Z,0.90
2019-06-10T14:10:53.991Z,1.20
2019-06-10T14:13:43.128Z,0.80
2019-06-10T14:16:32.892Z,0.80
2019-06-10T14:22:43.392Z,0.70
2019-06-10T14:25:33.060Z,1.00
2019-06-10T14:28:38.700Z,1.10
2019-06-10T14:31:31.285Z,0.60
2019-06-10T14:33:59.269Z,0.90
2019-06-10T14:36:47.082Z,0.83
2019-06-10T14:39:35.050Z,0.70
2019-06-10T14:42:23.216Z,0.70
2019-06-10T14:45:13.538Z,0.70
2019-06-10T14:48:02.719Z,0.70
2019-06-10T14:50:51.444Z,0.70
2019-06-10T14:53:39.013Z,1.03
2019-06-10T14:56:27.075Z,0.90
2019-06-10T14:59:17.873Z,0.70
2019-06-10T15:02:03.723Z,1.00
2019-06-10T15:04:53.203Z,0.90
2019-06-10T15:07:42.327Z,0.70
2019-06-10T15:10:29.458Z,0.80
2019-06-10T15:16:27.319Z,0.60
2019-06-10T15:19:21.916Z,0.60
2019-06-10T15:22:03.363Z,0.60
2019-06-10T15:24:53.149Z,0.43
2019-06-10T15:27:39.414Z,0.60
2019-06-10T15:30:31.064Z,0.73
2019-06-10T15:33:16.970Z,0.70
2019-06-10T15:36:04.919Z,0.70
2019-06-10T15:38:52.797Z,0.90
2019-06-10T15:41:43.797Z,0.90
2019-06-10T15:44:48.760Z,0.60
2019-06-10T15:47:25.327Z,1.10
2019-06-10T15:50:10.792Z,0.77
2019-06-10T15:52:58.939Z,1.00
2019-06-10T15:56:12.246Z,0.80
2019-06-10T15:58:38.864Z,1.20
2019-06-10T16:01:27.463Z,0.90
2019-06-10T16:04:17.215Z,0.97
2019-06-10T16:07:05.116Z,0.90
2019-06-10T16:09:58.215Z,0.80
2019-06-10T16:12:45.935Z,0.70
2019-06-10T16:15:34.274Z,1.00
2019-06-10T16:18:25.902Z,1.20
2019-06-10T16:21:13.328Z,0.70
2019-06-10T16:24:02.778Z,0.90
2019-06-10T16:26:52.594Z,0.80
2019-06-10T16:29:42.328Z,3.00
2019-06-10T16:32:29.647Z,1.20
2019-06-10T16:35:18.828Z,0.90
2019-06-10T16:38:06.884Z,0.70
2019-06-10T16:41:15.410Z,0.80
2019-06-10T16:44:03.082Z,0.93
2019-06-10T16:46:52.795Z,0.80
2019-06-10T16:49:42.745Z,0.73
2019-06-10T16:55:48.239Z,1.10
2019-06-10T16:58:44.483Z,0.93
2019-06-10T17:04:27.646Z,1.07
2019-06-10T17:07:16.121Z,1.17
2019-06-10T17:10:06.790Z,1.10
2019-06-10T17:13:05.291Z,0.90
2019-06-10T17:16:20.889Z,0.80
2019-06-10T17:19:08.875Z,0.97
2019-06-10T17:21:56.884Z,2.10
2019-06-10T17:24:45.453Z,1.00
2019-06-10T17:27:57.942Z,0.93
2019-06-10T17:30:46.070Z,0.90
2019-06-10T17:33:35.851Z,1.07
2019-06-10T17:36:27.983Z,1.20
2019-06-10T17:42:28.193Z,0.90
2019-06-10T17:45:12.814Z,1.23
2019-06-10T17:48:00.196Z,0.80
2019-06-10T17:50:47.669Z,0.80
2019-06-10T17:53:36.524Z,0.77
2019-06-10T17:56:26.270Z,0.80
2019-06-10T17:59:12.919Z,1.10
2019-06-10T18:02:00.163Z,0.70
2019-06-10T18:04:48.345Z,0.73
2019-06-10T18:07:36.429Z,1.03
2019-06-10T18:10:25.596Z,1.20
2019-06-10T18:13:16.678Z,0.97
2019-06-10T18:16:03.596Z,0.60
2019-06-10T18:18:52.449Z,1.03
2019-06-10T18:21:40.423Z,0.70
2019-06-10T18:24:29.187Z,0.80
2019-06-10T18:27:16.958Z,0.83
2019-06-10T18:30:10.952Z,1.03
2019-06-10T18:32:54.360Z,0.70
2019-06-10T18:35:43.547Z,1.20
2019-06-10T18:38:33.919Z,0.90
2019-06-10T18:41:22.378Z,0.80
2019-06-10T18:44:19.923Z,0.90
2019-06-10T18:46:58.141Z,0.87
2019-06-10T18:49:45.681Z,0.90
2019-06-10T18:52:33.579Z,1.23
2019-06-10T18:55:22.622Z,1.40
2019-06-10T18:58:10.467Z,2.17
2019-06-10T19:01:03.962Z,1.90
2019-06-10T19:03:48.001Z,0.70
2019-06-10T19:06:37.001Z,1.10
2019-06-10T19:09:24.353Z,0.80
2019-06-10T19:12:13.420Z,0.80
2019-06-10T19:15:02.771Z,1.00
2019-06-10T19:17:50.450Z,1.00
2019-06-10T19:20:42.729Z,1.27
2019-06-10T19:23:48.128Z,0.90
2019-06-10T19:26:47.694Z,0.90
2019-06-10T19:29:44.128Z,1.03
2019-06-10T19:32:26.579Z,1.00
2019-06-10T19:35:15.494Z,1.10
2019-06-10T19:38:06.143Z,1.03
2019-06-10T19:41:02.628Z,1.30
2019-06-10T19:43:47.266Z,0.90
2019-06-10T19:46:35.718Z,0.90
2019-06-10T19:49:43.611Z,1.10
2019-06-10T19:52:33.936Z,1.10
2019-06-10T19:55:23.318Z,0.90
2019-06-10T19:58:13.402Z,0.80
2019-06-10T20:01:00.934Z,0.80
2019-06-10T20:03:48.754Z,0.90
2019-06-10T20:06:37.861Z,0.83
2019-06-10T20:09:46.565Z,1.07
2019-06-10T20:12:38.403Z,1.57
2019-06-10T20:15:35.883Z,1.00
2019-06-10T20:18:23.712Z,1.37
2019-06-10T20:21:19.590Z,1.00
2019-06-10T20:24:07.954Z,1.33
2019-06-10T20:26:55.986Z,0.90
2019-06-10T20:29:45.751Z,1.37
2019-06-10T20:32:45.481Z,1.10
2019-06-10T20:39:12.076Z,1.60
2019-06-10T20:42:02.510Z,1.17
2019-06-10T20:48:17.200Z,1.03
2019-06-10T20:51:14.652Z,1.00
2019-06-10T20:54:02.890Z,0.90
2019-06-10T20:56:53.283Z,1.07
2019-06-10T20:59:43.706Z,1.27
2019-06-10T21:05:50.231Z,1.30
2019-06-10T21:08:44.952Z,1.40
2019-06-10T21:11:32.209Z,1.50
2019-06-10T21:14:19.938Z,1.40
2019-06-10T21:17:44.272Z,1.43
2019-06-10T21:20:34.379Z,1.33
2019-06-10T21:26:54.728Z,1.13
2019-06-10T21:29:43.993Z,1.23
2019-06-10T21:32:37.207Z,1.13
2019-06-10T21:38:55.800Z,1.10
2019-06-10T21:41:45.250Z,0.90
2019-06-10T21:44:32.213Z,1.40
2019-06-10T21:47:23.371Z,1.10
2019-06-10T21:50:12.525Z,1.50
2019-06-10T21:53:03.005Z,1.10
2019-06-10T22:02:50.560Z,1.37
2019-06-10T22:05:45.765Z,1.47
2019-06-10T22:08:36.906Z,1.30
2019-06-10T22:11:30.665Z,1.37
2019-06-10T22:14:18.596Z,1.43
2019-06-10T22:17:16.352Z,1.93
2019-06-10T22:20:12.292Z,1.20
2019-06-10T22:22:58.549Z,1.00
2019-06-10T22:25:49.039Z,1.07
2019-06-10T22:28:38.838Z,1.00
2019-06-10T22:31:32.465Z,1.17
2019-06-10T22:34:19.887Z,1.17
2019-06-10T22:37:07.679Z,1.40
2019-06-10T22:40:59.910Z,1.50
2019-06-10T22:42:53.623Z,1.50
2019-06-10T22:45:42.165Z,1.30
2019-06-10T22:48:33.162Z,1.10
2019-06-10T22:51:22.465Z,1.50
2019-06-10T22:54:12.173Z,1.40
2019-06-10T22:57:15.959Z,1.20
2019-06-10T23:00:04.205Z,1.53
2019-06-10T23:03:03.286Z,1.33
2019-06-10T23:06:08.811Z,1.70
2019-06-10T23:08:59.433Z,1.80
2019-06-10T23:11:48.523Z,1.23
2019-06-10T23:18:09.350Z,1.50
2019-06-10T23:21:07.407Z,1.50
2019-06-10T23:24:03.729Z,1.40
2019-06-10T23:26:55.874Z,1.30
2019-06-10T23:29:49.804Z,1.73
2019-06-10T23:32:42.270Z,1.50
2019-06-10T23:35:32.342Z,1.50
2019-06-10T23:38:52.989Z,1.70
2019-06-10T23:42:29.006Z,1.73
2019-06-10T23:45:18.469Z,1.77
2019-06-10T23:48:13.095Z,1.20
2019-06-10T23:51:06.560Z,1.63
2019-06-10T23:54:00.374Z,1.50
2019-06-10T23:56:52.767Z,1.47
2019-06-10T23:59:46.286Z,1.53
